createdAt,value
2023-05-14T00:00:36.649Z,62.00
2023-05-14T00:03:27.429Z,61.67
2023-05-14T00:05:55.729Z,61.72
2023-05-14T00:08:23.837Z,61.65
2023-05-14T00:10:52.470Z,61.85
2023-05-14T00:13:20.616Z,61.63
2023-05-14T00:15:48.878Z,61.74
2023-05-14T00:18:17.005Z,61.90
2023-05-14T00:20:45.506Z,61.70
2023-05-14T00:23:13.680Z,61.66
2023-05-14T00:25:41.947Z,61.63
2023-05-14T00:28:10.093Z,61.70
2023-05-14T00:30:38.339Z,61.70
2023-05-14T00:33:07.152Z,61.72
2023-05-14T00:35:36.018Z,61.94
2023-05-14T00:38:04.756Z,61.90
2023-05-14T00:40:33.151Z,62.08
2023-05-14T00:43:01.701Z,61.97
2023-05-14T00:45:29.911Z,62.22
2023-05-14T00:47:58.209Z,62.11
2023-05-14T00:50:26.937Z,62.23
2023-05-14T00:52:55.288Z,62.06
2023-05-14T00:55:23.815Z,62.10
2023-05-14T00:57:54.766Z,62.13
2023-05-14T01:00:23.273Z,62.21
2023-05-14T01:02:51.910Z,62.10
2023-05-14T01:05:20.306Z,62.16
2023-05-14T01:08:23.261Z,62.14
2023-05-14T01:10:57.895Z,62.19
2023-05-14T01:13:41.142Z,62.14
2023-05-14T01:16:13.825Z,62.33
2023-05-14T01:18:44.353Z,62.16
2023-05-14T01:21:36.444Z,62.31
2023-05-14T01:24:05.033Z,62.39
2023-05-14T01:26:33.872Z,62.38
2023-05-14T01:29:23.272Z,62.46
2023-05-14T01:31:54.332Z,62.48
2023-05-14T01:34:24.694Z,62.51
2023-05-14T01:36:53.925Z,62.61
2023-05-14T01:39:24.334Z,62.45
2023-05-14T01:41:54.405Z,62.60
2023-05-14T01:44:22.686Z,62.58
2023-05-14T01:46:50.903Z,62.51
2023-05-14T01:49:19.812Z,62.42
2023-05-14T01:51:47.972Z,62.49
2023-05-14T01:54:16.368Z,62.55
2023-05-14T01:56:44.524Z,62.54
2023-05-14T01:59:12.612Z,62.54
2023-05-14T02:01:40.868Z,62.52
2023-05-14T02:04:09.152Z,62.60
2023-05-14T02:06:37.346Z,62.69
2023-05-14T02:09:05.799Z,62.65
2023-05-14T02:11:33.945Z,62.58
2023-05-14T02:14:02.070Z,62.71
2023-05-14T02:16:30.238Z,62.76
2023-05-14T02:18:58.396Z,62.74
2023-05-14T02:21:26.587Z,62.85
2023-05-14T02:23:54.723Z,62.77
2023-05-14T02:26:22.947Z,62.89
2023-05-14T02:28:51.858Z,62.89
2023-05-14T02:31:20.451Z,62.88
2023-05-14T02:33:48.606Z,62.95
2023-05-14T02:36:16.755Z,63.11
2023-05-14T02:38:44.816Z,63.10
2023-05-14T02:41:12.938Z,63.12
2023-05-14T02:43:41.387Z,62.95
2023-05-14T02:46:09.546Z,62.98
2023-05-14T02:48:37.694Z,63.15
2023-05-14T02:51:05.847Z,63.01
2023-05-14T02:53:33.951Z,63.17
2023-05-14T02:56:02.100Z,63.10
2023-05-14T02:58:30.476Z,63.23
2023-05-14T03:00:58.709Z,63.15
2023-05-14T03:03:29.430Z,63.27
2023-05-14T03:05:58.168Z,63.23
2023-05-14T03:08:26.330Z,63.39
2023-05-14T03:10:54.505Z,63.25
2023-05-14T03:13:22.586Z,63.37
2023-05-14T03:15:54.974Z,63.50
2023-05-14T03:18:23.734Z,63.54
2023-05-14T03:20:52.034Z,63.46
2023-05-14T03:23:20.202Z,63.38
2023-05-14T03:25:48.415Z,63.21
2023-05-14T03:28:16.520Z,63.77
2023-05-14T03:30:44.804Z,63.56
2023-05-14T03:33:13.046Z,63.51
2023-05-14T03:35:41.153Z,63.55
2023-05-14T03:38:09.322Z,63.60
2023-05-14T03:40:37.466Z,63.61
2023-05-14T03:43:05.559Z,63.46
2023-05-14T03:45:34.078Z,63.40
2023-05-14T03:48:02.254Z,63.37
2023-05-14T03:50:31.366Z,63.52
2023-05-14T03:52:59.478Z,63.54
2023-05-14T03:55:27.717Z,63.59
2023-05-14T03:57:55.856Z,63.89
2023-05-14T04:00:24.536Z,63.75
2023-05-14T04:02:54.315Z,63.77
2023-05-14T04:05:26.884Z,63.78
2023-05-14T04:07:55.639Z,63.91
2023-05-14T04:10:23.888Z,63.76
2023-05-14T04:12:52.238Z,63.83
2023-05-14T04:15:20.607Z,63.92
2023-05-14T04:17:48.830Z,64.04
2023-05-14T04:20:17.020Z,63.88
2023-05-14T04:22:45.295Z,64.15
2023-05-14T04:25:13.456Z,64.13
2023-05-14T04:27:41.725Z,64.02
2023-05-14T04:30:10.342Z,64.03
2023-05-14T04:32:39.192Z,64.06
2023-05-14T04:35:09.129Z,63.98
2023-05-14T04:37:37.322Z,64.11
2023-05-14T04:40:07.054Z,64.13
2023-05-14T04:42:35.145Z,64.19
2023-05-14T04:45:05.352Z,64.30
2023-05-14T04:47:33.579Z,64.24
2023-05-14T04:50:02.179Z,64.15
2023-05-14T04:52:30.360Z,64.21
2023-05-14T04:54:58.508Z,64.18
2023-05-14T04:57:26.845Z,64.37
2023-05-14T04:59:55.087Z,64.26
2023-05-14T05:02:23.873Z,64.15
2023-05-14T05:04:52.070Z,64.28
2023-05-14T05:07:20.280Z,64.43
2023-05-14T05:09:48.353Z,64.22
2023-05-14T05:12:16.493Z,64.47
2023-05-14T05:14:44.686Z,64.43
2023-05-14T05:17:12.800Z,64.69
2023-05-14T05:19:44.286Z,64.50
2023-05-14T05:22:12.782Z,64.38
2023-05-14T05:24:41.076Z,64.31
2023-05-14T05:27:09.179Z,64.39
2023-05-14T05:29:37.604Z,64.42
2023-05-14T05:32:06.401Z,64.48
2023-05-14T05:34:35.968Z,64.61
2023-05-14T05:37:06.079Z,64.28
2023-05-14T05:39:35.251Z,64.40
2023-05-14T05:42:06.137Z,64.35
2023-05-14T05:44:34.636Z,64.54
2023-05-14T05:47:02.944Z,64.47
2023-05-14T05:49:31.122Z,64.51
2023-05-14T05:51:59.242Z,64.51
2023-05-14T05:54:27.398Z,64.43
2023-05-14T05:56:55.708Z,64.54
2023-05-14T05:59:24.828Z,64.44
2023-05-14T06:01:53.370Z,64.49
2023-05-14T06:04:21.659Z,64.46
2023-05-14T06:06:49.760Z,64.58
2023-05-14T06:09:17.968Z,64.40
2023-05-14T06:11:46.175Z,64.43
2023-05-14T06:14:14.366Z,64.22
2023-05-14T06:16:42.475Z,64.40
2023-05-14T06:19:11.292Z,64.29
2023-05-14T06:21:39.612Z,64.19
2023-05-14T06:24:07.940Z,64.18
2023-05-14T06:26:36.068Z,64.00
2023-05-14T06:29:04.163Z,63.79
2023-05-14T06:31:32.328Z,64.09
2023-05-14T06:34:00.457Z,63.97
2023-05-14T06:36:28.625Z,64.17
2023-05-14T06:38:56.951Z,64.16
2023-05-14T06:41:25.052Z,63.84
2023-05-14T06:43:53.197Z,63.78
2023-05-14T06:46:21.670Z,64.08
2023-05-14T06:48:49.887Z,63.74
2023-05-14T06:51:18.051Z,63.70
2023-05-14T06:53:47.000Z,64.02
2023-05-14T06:56:15.137Z,64.07
2023-05-14T06:58:43.316Z,63.69
2023-05-14T07:01:11.495Z,63.88
2023-05-14T07:03:39.699Z,63.67
2023-05-14T07:06:07.930Z,63.58
2023-05-14T07:08:36.247Z,63.52
2023-05-14T07:11:04.572Z,63.76
2023-05-14T07:13:32.690Z,63.71
2023-05-14T07:16:00.795Z,63.72
2023-05-14T07:18:29.017Z,63.60
2023-05-14T07:20:57.383Z,63.72
2023-05-14T07:23:25.535Z,63.61
2023-05-14T07:25:53.751Z,63.51
2023-05-14T07:28:21.917Z,63.39
2023-05-14T07:30:50.078Z,63.41
2023-05-14T07:33:18.376Z,63.37
2023-05-14T07:35:46.619Z,63.28
2023-05-14T07:38:15.438Z,63.31
2023-05-14T07:40:43.737Z,63.20
2023-05-14T07:43:11.940Z,63.18
2023-05-14T07:45:40.284Z,63.19
2023-05-14T07:48:08.776Z,63.07
2023-05-14T07:50:37.874Z,63.02
2023-05-14T07:53:06.209Z,62.83
2023-05-14T07:55:34.291Z,62.97
2023-05-14T07:58:02.491Z,62.70
2023-05-14T08:00:30.855Z,62.69
2023-05-14T08:02:59.421Z,62.69
2023-05-14T08:05:27.788Z,62.60
2023-05-14T08:07:56.021Z,62.62
2023-05-14T08:10:24.340Z,62.51
2023-05-14T08:12:52.767Z,62.47
2023-05-14T08:15:21.162Z,62.46
2023-05-14T08:17:49.376Z,62.34
2023-05-14T08:20:17.765Z,62.23
2023-05-14T08:22:45.917Z,62.15
2023-05-14T08:25:14.068Z,62.16
2023-05-14T08:27:42.265Z,61.95
2023-05-14T08:30:10.843Z,62.03
2023-05-14T08:32:39.548Z,61.98
2023-05-14T08:35:08.421Z,61.78
2023-05-14T08:37:36.548Z,61.81
2023-05-14T08:40:04.996Z,61.63
2023-05-14T08:42:33.358Z,61.64
2023-05-14T08:45:03.321Z,61.71
2023-05-14T08:47:32.012Z,61.43
2023-05-14T08:50:08.428Z,61.61
2023-05-14T08:52:36.523Z,61.51
2023-05-14T08:55:06.669Z,61.52
2023-05-14T08:57:35.525Z,61.58
2023-05-14T09:00:08.823Z,61.43
2023-05-14T09:02:37.538Z,61.35
2023-05-14T09:05:07.571Z,61.33
2023-05-14T09:07:36.268Z,61.42
2023-05-14T09:10:04.930Z,61.32
2023-05-14T09:12:33.200Z,61.20
2023-05-14T09:15:01.334Z,61.17
2023-05-14T09:17:29.601Z,61.00
2023-05-14T09:19:58.557Z,61.01
2023-05-14T09:22:31.924Z,60.77
2023-05-14T09:25:07.123Z,60.60
2023-05-14T09:27:36.535Z,60.49
2023-05-14T09:30:12.625Z,60.31
2023-05-14T09:32:50.640Z,60.11
2023-05-14T09:35:23.981Z,60.03
2023-05-14T09:37:53.989Z,59.78
2023-05-14T09:40:24.581Z,59.58
2023-05-14T09:42:53.504Z,59.40
2023-05-14T09:45:21.985Z,59.20
2023-05-14T09:47:50.353Z,59.24
2023-05-14T09:50:18.657Z,59.04
2023-05-14T09:52:46.809Z,58.97
2023-05-14T09:55:16.187Z,58.98
2023-05-14T09:57:45.180Z,58.86
2023-05-14T10:00:13.918Z,58.56
2023-05-14T10:02:45.703Z,58.54
2023-05-14T10:05:16.063Z,58.37
2023-05-14T10:07:51.823Z,58.08
2023-05-14T10:10:21.464Z,58.01
2023-05-14T10:13:04.761Z,58.11
2023-05-14T10:15:59.512Z,57.97
2023-05-14T10:18:31.793Z,57.82
2023-05-14T10:21:08.147Z,57.73
2023-05-14T10:23:38.170Z,57.66
2023-05-14T10:26:07.072Z,57.37
2023-05-14T10:28:36.987Z,57.24
2023-05-14T10:31:05.212Z,57.40
2023-05-14T10:33:47.348Z,57.24
2023-05-14T10:36:15.749Z,57.11
2023-05-14T10:38:43.967Z,56.96
2023-05-14T10:41:18.061Z,56.97
2023-05-14T10:43:46.294Z,56.67
2023-05-14T10:46:15.158Z,56.58
2023-05-14T10:48:44.538Z,56.55
2023-05-14T10:51:13.068Z,56.52
2023-05-14T10:53:43.300Z,56.51
2023-05-14T10:56:14.776Z,56.59
2023-05-14T10:58:44.939Z,56.35
2023-05-14T11:01:14.036Z,56.30
2023-05-14T11:03:46.970Z,56.17
2023-05-14T11:06:16.404Z,56.16
2023-05-14T11:08:46.618Z,56.07
2023-05-14T11:11:15.121Z,56.04
2023-05-14T11:13:44.861Z,55.98
2023-05-14T11:16:23.436Z,55.99
2023-05-14T11:19:03.522Z,56.01
2023-05-14T11:21:33.051Z,55.95
2023-05-14T11:24:01.764Z,55.99
2023-05-14T11:26:31.814Z,55.82
2023-05-14T11:29:00.243Z,55.76
2023-05-14T11:31:28.517Z,55.64
2023-05-14T11:33:57.084Z,55.67
2023-05-14T11:36:25.299Z,55.65
2023-05-14T11:38:53.545Z,55.59
2023-05-14T11:41:23.163Z,55.60
2023-05-14T11:43:51.721Z,55.56
2023-05-14T11:46:20.103Z,55.56
2023-05-14T11:48:48.573Z,55.42
2023-05-14T11:51:17.024Z,55.52
2023-05-14T11:53:46.334Z,55.24
2023-05-14T11:56:14.501Z,55.20
2023-05-14T11:58:48.690Z,55.11
2023-05-14T12:01:17.322Z,55.13
2023-05-14T12:03:45.999Z,55.14
2023-05-14T12:06:14.235Z,55.23
2023-05-14T12:08:42.499Z,55.26
2023-05-14T12:11:10.670Z,55.11
2023-05-14T12:13:39.845Z,55.20
2023-05-14T12:16:08.060Z,55.37
2023-05-14T12:18:37.279Z,55.26
2023-05-14T12:21:08.463Z,55.32
2023-05-14T12:23:39.174Z,55.29
2023-05-14T12:26:09.237Z,55.40
2023-05-14T12:28:43.615Z,55.48
2023-05-14T12:31:12.118Z,55.37
2023-05-14T12:33:40.549Z,55.29
2023-05-14T12:38:42.009Z,55.34
2023-05-14T12:41:10.131Z,55.30
2023-05-14T12:43:38.371Z,55.23
2023-05-14T12:46:06.743Z,55.22
2023-05-14T12:48:34.978Z,55.34
2023-05-14T12:51:03.299Z,55.25
2023-05-14T12:53:31.525Z,55.19
2023-05-14T12:55:59.642Z,55.13
2023-05-14T12:58:27.764Z,55.13
2023-05-14T13:00:56.667Z,55.02
2023-05-14T13:03:25.355Z,54.91
2023-05-14T13:05:54.469Z,54.83
2023-05-14T13:08:25.146Z,54.84
2023-05-14T13:10:54.231Z,54.85
2023-05-14T13:13:23.082Z,54.78
2023-05-14T13:15:51.242Z,54.95
2023-05-14T13:18:19.535Z,54.82
2023-05-14T13:20:48.038Z,54.71
2023-05-14T13:23:16.219Z,54.55
2023-05-14T13:25:44.334Z,54.50
2023-05-14T13:28:12.629Z,54.40
2023-05-14T13:30:41.038Z,54.69
2023-05-14T13:33:09.260Z,54.53
2023-05-14T13:35:37.665Z,54.34
2023-05-14T13:38:05.909Z,54.48
2023-05-14T13:40:34.011Z,54.64
2023-05-14T13:43:03.178Z,54.29
2023-05-14T13:45:31.275Z,54.17
2023-05-14T13:47:59.465Z,54.21
2023-05-14T13:50:27.607Z,54.15
2023-05-14T13:52:55.691Z,53.94
2023-05-14T13:55:23.950Z,53.72
2023-05-14T13:57:52.163Z,53.59
2023-05-14T14:00:20.532Z,53.56
2023-05-14T14:02:48.636Z,53.48
2023-05-14T14:05:16.888Z,53.60
2023-05-14T14:07:45.784Z,53.54
2023-05-14T14:10:14.777Z,53.34
2023-05-14T14:12:42.891Z,53.15
2023-05-14T14:15:11.551Z,53.17
2023-05-14T14:17:41.836Z,53.01
2023-05-14T14:20:10.780Z,53.07
2023-05-14T14:22:39.145Z,52.92
2023-05-14T14:25:08.647Z,52.94
2023-05-14T14:27:38.675Z,53.03
2023-05-14T14:30:17.097Z,52.99
2023-05-14T14:32:46.989Z,52.78
2023-05-14T14:35:17.030Z,52.47
2023-05-14T14:37:49.244Z,52.51
2023-05-14T14:40:17.918Z,52.53
2023-05-14T14:42:46.071Z,52.61
2023-05-14T14:45:14.255Z,52.71
2023-05-14T14:47:47.244Z,52.68
2023-05-14T14:50:15.672Z,52.42
2023-05-14T14:52:46.005Z,52.25
2023-05-14T14:55:14.313Z,52.26
2023-05-14T14:57:42.504Z,52.28
2023-05-14T15:00:11.467Z,52.25
2023-05-14T15:02:42.308Z,52.32
2023-05-14T15:05:10.662Z,52.34
2023-05-14T15:07:38.860Z,52.58
2023-05-14T15:10:07.642Z,52.70
2023-05-14T15:12:35.956Z,52.78
2023-05-14T15:15:04.380Z,52.78
2023-05-14T15:17:32.546Z,52.67
2023-05-14T15:20:00.712Z,52.67
2023-05-14T15:22:28.888Z,52.73
2023-05-14T15:24:57.030Z,52.37
2023-05-14T15:27:25.319Z,52.04
2023-05-14T15:29:53.825Z,52.06
2023-05-14T15:32:22.285Z,52.12
2023-05-14T15:34:50.547Z,52.09
2023-05-14T15:37:18.838Z,52.02
2023-05-14T15:39:47.024Z,52.04
2023-05-14T15:42:15.241Z,52.22
2023-05-14T15:44:43.394Z,52.01
2023-05-14T15:47:11.485Z,51.87
2023-05-14T15:49:39.632Z,51.97
2023-05-14T15:52:07.995Z,52.25
2023-05-14T15:54:36.189Z,52.34
2023-05-14T15:57:04.616Z,52.39
2023-05-14T15:59:32.819Z,52.36
2023-05-14T16:02:00.963Z,52.29
2023-05-14T16:04:29.237Z,52.41
2023-05-14T16:07:08.042Z,52.65
2023-05-14T16:09:38.866Z,52.90
2023-05-14T16:12:08.099Z,52.82
2023-05-14T16:14:36.542Z,52.87
2023-05-14T16:17:04.898Z,52.95
2023-05-14T16:19:32.987Z,52.81
2023-05-14T16:22:01.429Z,52.79
2023-05-14T16:24:29.717Z,52.73
2023-05-14T16:26:58.483Z,52.73
2023-05-14T16:29:26.545Z,52.72
2023-05-14T16:31:54.979Z,52.67
2023-05-14T16:34:23.114Z,52.87
2023-05-14T16:36:51.269Z,52.85
2023-05-14T16:39:20.108Z,53.11
2023-05-14T16:41:48.220Z,52.94
2023-05-14T16:44:16.610Z,53.03
2023-05-14T16:46:45.012Z,53.10
2023-05-14T16:49:14.203Z,53.15
2023-05-14T16:51:44.018Z,53.30
2023-05-14T16:54:12.165Z,53.32
2023-05-14T16:56:40.623Z,53.32
2023-05-14T16:59:08.978Z,53.07
2023-05-14T17:01:37.691Z,53.31
2023-05-14T17:04:06.003Z,53.18
2023-05-14T17:06:34.797Z,53.33
2023-05-14T17:09:03.788Z,53.30
2023-05-14T17:11:31.855Z,53.39
2023-05-14T17:13:58.872Z,53.44
2023-05-14T17:16:26.271Z,53.73
2023-05-14T17:18:56.571Z,53.46
2023-05-14T17:21:24.936Z,53.61
2023-05-14T17:23:53.191Z,53.83
2023-05-14T17:26:21.984Z,53.67
2023-05-14T17:28:50.120Z,53.75
2023-05-14T17:31:18.444Z,53.76
2023-05-14T17:33:46.817Z,53.76
2023-05-14T17:36:15.402Z,53.72
2023-05-14T17:38:43.970Z,53.80
2023-05-14T17:41:12.451Z,53.90
2023-05-14T17:43:40.605Z,53.96
2023-05-14T17:46:08.923Z,53.89
2023-05-14T17:48:37.018Z,53.83
2023-05-14T17:51:05.195Z,53.79
2023-05-14T17:53:33.365Z,53.67
2023-05-14T17:56:01.635Z,53.79
2023-05-14T17:58:30.066Z,53.69
2023-05-14T18:00:58.275Z,53.71
2023-05-14T18:03:26.833Z,53.83
2023-05-14T18:05:55.304Z,53.82
2023-05-14T18:08:23.533Z,53.78
2023-05-14T18:10:51.774Z,53.76
2023-05-14T18:13:20.268Z,53.88
2023-05-14T18:15:48.499Z,53.79
2023-05-14T18:18:18.887Z,53.88
2023-05-14T18:20:47.198Z,53.87
2023-05-14T18:23:15.517Z,53.83
2023-05-14T18:25:43.900Z,53.86
2023-05-14T18:28:13.269Z,54.00
2023-05-14T18:30:44.165Z,53.92
2023-05-14T18:33:13.526Z,53.90
2023-05-14T18:35:44.100Z,53.87
2023-05-14T18:38:13.970Z,53.83
2023-05-14T18:40:42.085Z,53.85
2023-05-14T18:43:11.748Z,53.85
2023-05-14T18:45:40.534Z,53.81
2023-05-14T18:48:10.072Z,53.71
2023-05-14T18:50:39.369Z,53.70
2023-05-14T18:53:08.518Z,53.93
2023-05-14T18:55:37.183Z,53.88
2023-05-14T18:58:05.450Z,53.91
2023-05-14T19:00:33.586Z,53.90
2023-05-14T19:03:01.776Z,53.72
2023-05-14T19:05:30.329Z,53.81
2023-05-14T19:07:58.541Z,54.09
2023-05-14T19:10:26.869Z,54.03
2023-05-14T19:12:55.053Z,54.11
2023-05-14T19:15:23.803Z,53.87
2023-05-14T19:17:54.143Z,54.09
2023-05-14T19:20:22.440Z,54.35
2023-05-14T19:22:50.787Z,54.07
2023-05-14T19:25:18.899Z,54.11
2023-05-14T19:27:51.024Z,54.22
2023-05-14T19:30:20.303Z,54.15
2023-05-14T19:32:48.489Z,54.16
2023-05-14T19:35:16.641Z,53.81
2023-05-14T19:37:44.782Z,53.96
2023-05-14T19:40:13.177Z,53.96
2023-05-14T19:42:41.559Z,53.95
2023-05-14T19:45:10.382Z,53.79
2023-05-14T19:47:38.830Z,53.92
2023-05-14T19:50:08.615Z,53.81
2023-05-14T19:52:36.702Z,53.84
2023-05-14T19:55:05.397Z,54.39
2023-05-14T19:57:33.513Z,54.00
2023-05-14T20:00:01.704Z,54.02
2023-05-14T20:02:30.311Z,54.10
2023-05-14T20:04:58.715Z,54.22
2023-05-14T20:07:26.977Z,54.16
2023-05-14T20:09:55.141Z,53.89
2023-05-14T20:12:23.454Z,54.04
2023-05-14T20:14:51.804Z,53.95
2023-05-14T20:17:21.130Z,53.91
2023-05-14T20:19:49.224Z,53.92
2023-05-14T20:22:17.315Z,53.97
2023-05-14T20:24:45.614Z,53.71
2023-05-14T20:27:13.908Z,53.68
2023-05-14T20:29:42.105Z,54.11
2023-05-14T20:32:10.455Z,53.91
2023-05-14T20:34:38.592Z,53.77
2023-05-14T20:37:08.137Z,53.75
2023-05-14T20:39:36.383Z,53.99
2023-05-14T20:42:04.841Z,53.92
2023-05-14T20:44:32.993Z,53.68
2023-05-14T20:47:01.400Z,53.76
2023-05-14T20:49:29.627Z,53.49
2023-05-14T20:51:57.680Z,53.57
2023-05-14T20:54:25.740Z,53.80
2023-05-14T20:56:53.939Z,53.74
2023-05-14T20:59:22.055Z,53.83
2023-05-14T21:01:51.085Z,53.77
2023-05-14T21:04:19.564Z,53.55
2023-05-14T21:06:47.761Z,53.61
2023-05-14T21:09:16.190Z,53.51
2023-05-14T21:11:44.588Z,53.68
2023-05-14T21:14:12.859Z,53.53
2023-05-14T21:16:41.072Z,53.64
2023-05-14T21:19:09.420Z,53.68
2023-05-14T21:21:37.965Z,53.60
2023-05-14T21:24:06.442Z,53.85
2023-05-14T21:26:35.863Z,53.46
2023-05-14T21:29:04.315Z,53.73
2023-05-14T21:31:32.468Z,53.54
2023-05-14T21:34:00.797Z,53.67
2023-05-14T21:36:29.195Z,53.31
2023-05-14T21:38:57.372Z,53.60
2023-05-14T21:41:25.713Z,53.64
2023-05-14T21:43:53.813Z,53.38
2023-05-14T21:46:21.984Z,53.57
2023-05-14T21:48:50.234Z,53.58
2023-05-14T21:51:18.346Z,53.48
2023-05-14T21:53:48.592Z,53.45
2023-05-14T21:56:16.760Z,53.72
2023-05-14T21:58:45.132Z,53.36
2023-05-14T22:01:13.264Z,53.56
2023-05-14T22:03:41.570Z,53.64
2023-05-14T22:06:09.710Z,53.56
2023-05-14T22:08:37.837Z,53.53
2023-05-14T22:11:05.975Z,53.45
2023-05-14T22:13:35.518Z,53.12
2023-05-14T22:16:12.029Z,53.20
2023-05-14T22:18:41.697Z,53.56
2023-05-14T22:21:09.951Z,53.33
2023-05-14T22:23:38.046Z,53.32
2023-05-14T22:26:06.208Z,53.60
2023-05-14T22:28:34.370Z,53.38
2023-05-14T22:31:02.571Z,52.93
2023-05-14T22:33:33.248Z,53.11
2023-05-14T22:36:01.535Z,53.05
2023-05-14T22:38:29.624Z,53.11
2023-05-14T22:40:57.751Z,52.98
2023-05-14T22:43:25.959Z,53.06
2023-05-14T22:45:54.209Z,53.28
2023-05-14T22:48:22.622Z,53.23
2023-05-14T22:50:51.920Z,52.96
2023-05-14T22:53:20.033Z,53.17
2023-05-14T22:55:48.215Z,53.09
2023-05-14T22:58:16.430Z,53.18
2023-05-14T23:00:44.513Z,52.98
2023-05-14T23:03:12.610Z,53.18
2023-05-14T23:05:40.818Z,53.21
2023-05-14T23:08:09.108Z,53.02
2023-05-14T23:10:37.400Z,53.12
2023-05-14T23:13:05.649Z,53.01
2023-05-14T23:15:33.754Z,53.28
2023-05-14T23:18:01.998Z,53.28
2023-05-14T23:20:30.191Z,53.10
2023-05-14T23:22:58.313Z,53.23
2023-05-14T23:25:26.481Z,53.42
2023-05-14T23:27:54.682Z,53.28
2023-05-14T23:30:22.794Z,53.45
2023-05-14T23:32:50.986Z,53.14
2023-05-14T23:35:19.348Z,53.27
2023-05-14T23:37:49.645Z,53.15
2023-05-14T23:40:18.396Z,52.92
2023-05-14T23:42:46.879Z,53.34
2023-05-14T23:45:15.146Z,53.21
2023-05-14T23:47:43.378Z,53.05
2023-05-14T23:50:11.629Z,53.19
2023-05-14T23:52:39.717Z,53.55
2023-05-14T23:55:08.101Z,53.08
2023-05-14T23:57:36.341Z,53.51
